Terminal Aerodrome Forecast
Issued by NWS

Home | Current Version | Previous Version | Text Only | Print | Product List | Glossary On
Versions: 1 2 3 4 5 6 7 8 9 10 11 12 13 14 15 16
000
FTAK31 PAJN 270940 AAA
TAFAWG
TAF AMD
PAWG 270940Z 2710/2806 30003KT P6SM VCFG FEW003 SCT035
      TEMPO 2710/2713 1SM BR VV005
     FM272100 31006KT P6SM SCT070
      AMD LTD TO CLD VIS AND WIND 2710/2715=

USA.gov is the U.S. government's official web portal to all federal, state and local government web resources and services.